Time;durP1;ratioP1;P1;durP2;ratioP2;P2;SDS_P1;SDS_P2;PMS_P1;PMS_P2;Temp;Humidity;BMP_temperature;BMP_pressure;BME280_temperature;BME280_humidity;BME280_pressure;Samples;Min_cycle;Max_cycle;Signal;HPM_P1;HPM_P2
2022/01/17 00:01:12;;;;;;;6.90;3.20;;;;;;;-0.64;62.76;98313.39;105226;1270;197694;-23
2022/01/17 00:03:41;;;;;;;10.50;4.20;;;;;;;-0.64;62.99;98307.06;105243;1271;61750;-23
2022/01/17 00:06:11;;;;;;;9.00;4.40;;;;;;;-0.63;62.98;98297.46;105180;1270;75378;-23
2022/01/17 00:08:42;;;;;;;11.90;4.40;;;;;;;-0.65;63.04;98296.36;105388;1270;76044;-23
2022/01/17 00:11:14;;;;;;;14.90;4.80;;;;;;;-0.65;63.07;98289.69;105045;1271;73396;-23
2022/01/17 00:13:43;;;;;;;9.90;3.40;;;;;;;-0.65;62.97;98290.56;105067;1271;61019;-23
2022/01/17 00:16:22;;;;;;;5.60;3.30;;;;;;;-0.64;62.71;98288.11;104894;1271;61827;-23
2022/01/17 00:19:42;;;;;;;7.50;3.90;;;;;;;-0.64;62.80;98276.19;105132;1271;75721;-23
2022/01/17 00:21:42;;;;;;;7.90;4.00;;;;;;;-0.61;62.92;98273.50;105276;1271;75823;-23
2022/01/17 00:24:10;;;;;;;6.50;3.70;;;;;;;-0.59;62.81;98267.63;105142;1271;74107;-23
2022/01/17 00:26:39;;;;;;;8.30;3.10;;;;;;;-0.61;62.83;98266.65;105396;1271;61146;-23
2022/01/17 00:29:07;;;;;;;9.60;4.00;;;;;;;-0.61;63.13;98262.25;105138;1271;62088;-23
2022/01/17 00:31:35;;;;;;;10.60;3.40;;;;;;;-0.63;63.00;98259.26;105144;1271;74876;-23
2022/01/17 00:34:04;;;;;;;6.30;2.10;;;;;;;-0.64;63.02;98261.87;104904;1271;75820;-23
2022/01/17 00:36:32;;;;;;;8.60;4.10;;;;;;;-0.64;63.20;98259.85;104843;1271;73409;-23
2022/01/17 00:39:00;;;;;;;6.00;2.90;;;;;;;-0.66;63.59;98259.92;104966;1271;61072;-23
2022/01/17 00:41:28;;;;;;;15.20;4.90;;;;;;;-0.64;63.01;98254.05;105152;1271;61768;-23
2022/01/17 00:43:56;;;;;;;10.70;3.70;;;;;;;-0.61;63.24;98248.29;104909;1271;75697;-23
2022/01/17 00:46:25;;;;;;;9.50;3.90;;;;;;;-0.62;63.34;98248.83;105068;1271;76378;-23
2022/01/17 00:48:53;;;;;;;8.20;3.70;;;;;;;-0.61;63.24;98240.95;105133;1271;74304;-23
2022/01/17 00:51:22;;;;;;;8.20;3.60;;;;;;;-0.62;63.31;98233.81;105383;1270;61146;-23
2022/01/17 00:53:50;;;;;;;11.20;4.20;;;;;;;-0.58;63.48;98227.52;105001;1270;61105;-23
2022/01/17 00:56:19;;;;;;;10.40;3.80;;;;;;;-0.59;63.30;98225.52;104947;1271;75439;-23
2022/01/17 00:58:48;;;;;;;6.40;3.80;;;;;;;-0.58;63.43;98222.58;104993;1271;75226;-23
2022/01/17 01:01:16;;;;;;;8.80;4.60;;;;;;;-0.60;63.66;98222.46;104845;1271;73424;-24
2022/01/17 01:03:45;;;;;;;6.70;3.80;;;;;;;-0.64;63.81;98218.02;104861;1271;61038;-23
2022/01/17 01:06:13;;;;;;;9.10;4.30;;;;;;;-0.63;63.80;98206.94;105014;1271;61140;-23
2022/01/17 01:08:41;;;;;;;10.20;4.90;;;;;;;-0.66;64.01;98194.48;104884;1271;74006;-23
2022/01/17 01:11:09;;;;;;;8.60;3.20;;;;;;;-0.66;64.08;98196.83;104955;1271;75887;-23
2022/01/17 01:13:38;;;;;;;8.40;4.30;;;;;;;-0.68;64.35;98193.88;105032;1271;74378;-23
2022/01/17 01:16:22;;;;;;;7.40;2.90;;;;;;;-0.69;64.45;98188.14;105122;1271;60994;-24
2022/01/17 01:29:48;;;;;;;5.10;3.00;;;;;;;-0.62;64.40;98162.89;105330;1270;60923;-23
2022/01/17 01:32:21;;;;;;;6.20;3.80;;;;;;;-0.62;64.13;98151.96;104999;1271;61012;-23
2022/01/17 01:34:53;;;;;;;4.90;2.90;;;;;;;-0.59;64.00;98141.10;104986;1271;74669;-23
2022/01/17 01:37:22;;;;;;;8.90;4.90;;;;;;;-0.58;64.20;98141.75;105400;1270;76058;-24
2022/01/17 01:39:52;;;;;;;12.60;4.70;;;;;;;-0.55;64.18;98138.20;105369;1271;73580;-24
2022/01/17 01:42:22;;;;;;;12.40;4.00;;;;;;;-0.53;64.14;98135.70;105389;1271;61019;-23
2022/01/17 01:44:52;;;;;;;8.40;4.00;;;;;;;-0.52;64.26;98124.02;105162;1271;62096;-24
2022/01/17 01:47:25;;;;;;;7.50;3.50;;;;;;;-0.51;64.45;98112.38;104949;1271;75670;-24
2022/01/17 01:49:53;;;;;;;11.00;4.50;;;;;;;-0.50;64.67;98109.96;105172;1271;74529;-24
2022/01/17 01:52:21;;;;;;;7.70;3.70;;;;;;;-0.48;64.65;98100.48;105387;1271;73116;-24
2022/01/17 01:54:51;;;;;;;8.60;4.00;;;;;;;-0.47;64.98;98095.30;105127;1271;61062;-23
2022/01/17 01:57:19;;;;;;;9.50;3.40;;;;;;;-0.45;65.11;98086.38;105056;1270;61134;-23
2022/01/17 01:59:47;;;;;;;17.90;4.20;;;;;;;-0.21;64.74;98092.46;104792;1271;74414;-23
2022/01/17 02:02:15;;;;;;;6.70;3.70;;;;;;;0.45;62.96;98085.86;105048;1271;75902;-24
2022/01/17 02:04:44;;;;;;;6.90;3.80;;;;;;;0.70;62.06;98083.58;105028;1270;72111;-24
2022/01/17 02:07:13;;;;;;;8.20;3.30;;;;;;;0.73;61.92;98087.20;104947;1271;61135;-23
2022/01/17 02:09:42;;;;;;;11.00;4.00;;;;;;;0.59;62.10;98088.30;105049;1271;61092;-24
2022/01/17 02:12:21;;;;;;;11.80;4.90;;;;;;;0.41;62.68;98089.47;104903;1271;75580;-25
2022/01/17 02:14:50;;;;;;;9.50;4.70;;;;;;;0.28;63.24;98088.45;104985;1270;74237;-24
2022/01/17 02:17:20;;;;;;;11.60;4.70;;;;;;;0.17;63.81;98085.33;104947;1271;73441;-24
2022/01/17 02:19:53;;;;;;;7.80;3.70;;;;;;;0.11;64.03;98086.66;104980;1271;61046;-23
2022/01/17 02:22:22;;;;;;;8.80;3.80;;;;;;;0.06;64.27;98078.06;104744;1271;62168;-23
2022/01/17 02:24:50;;;;;;;11.30;4.00;;;;;;;0.01;64.74;98077.80;104948;1271;75520;-22
2022/01/17 02:27:19;;;;;;;9.90;4.70;;;;;;;-0.06;65.61;98071.71;104886;1271;74873;-23
2022/01/17 02:29:47;;;;;;;10.60;5.20;;;;;;;-0.12;66.65;98058.71;105034;1271;72961;-23
2022/01/17 02:32:15;;;;;;;9.40;5.10;;;;;;;-0.15;67.21;98059.37;104975;1271;61162;-23
2022/01/17 02:34:44;;;;;;;11.30;4.70;;;;;;;-0.20;68.43;98056.56;105008;1271;61141;-23
2022/01/17 02:37:13;;;;;;;5.70;3.50;;;;;;;0.16;68.18;98052.59;105255;1269;75341;-22
2022/01/17 02:39:41;;;;;;;8.90;4.90;;;;;;;0.64;66.57;98057.27;105306;1271;74541;-23
2022/01/17 02:42:15;;;;;;;10.10;4.50;;;;;;;0.61;66.84;98037.80;105422;1271;74813;-23
2022/01/17 02:44:45;;;;;;;6.40;4.20;;;;;;;0.53;67.50;98043.24;105380;1271;61166;-23
2022/01/17 02:47:15;;;;;;;7.60;4.10;;;;;;;0.40;67.58;98035.59;105365;1270;61059;-23
2022/01/17 02:49:44;;;;;;;11.00;6.10;;;;;;;0.29;68.35;98031.07;105197;1271;75516;-22
2022/01/17 02:52:12;;;;;;;12.20;5.50;;;;;;;0.11;68.82;98030.00;105359;1271;75973;-23
2022/01/17 02:54:41;;;;;;;10.80;6.00;;;;;;;0.04;69.12;98018.95;105047;1270;74628;-23
2022/01/17 02:57:09;;;;;;;11.00;5.50;;;;;;;-0.03;69.58;98011.81;104905;1271;60996;-23
2022/01/17 02:59:39;;;;;;;13.90;6.70;;;;;;;-0.09;69.83;98014.51;104973;1271;61117;-22
2022/01/17 03:02:07;;;;;;;10.10;5.80;;;;;;;-0.08;70.39;98008.14;105013;1271;75516;-22
2022/01/17 03:04:35;;;;;;;12.20;5.60;;;;;;;0.42;69.30;98005.92;105351;1270;74894;-22
2022/01/17 03:07:04;;;;;;;10.50;5.70;;;;;;;0.61;68.77;98004.52;105001;1270;74414;-22
2022/01/17 03:09:42;;;;;;;12.30;6.20;;;;;;;0.62;68.88;97999.86;104951;1271;61083;-22
2022/01/17 03:12:11;;;;;;;12.00;4.90;;;;;;;0.43;69.90;97999.88;105074;1271;61847;-23
2022/01/17 03:14:40;;;;;;;13.60;6.40;;;;;;;0.30;70.56;97995.80;105022;1270;75364;-24
2022/01/17 03:17:09;;;;;;;11.20;5.60;;;;;;;0.16;71.20;97998.33;105230;1270;75785;-25
2022/01/17 03:19:38;;;;;;;13.70;5.40;;;;;;;0.03;71.94;97982.32;105066;1271;72881;-24
2022/01/17 03:22:06;;;;;;;11.40;5.90;;;;;;;-0.05;72.32;97995.38;104933;1271;61350;-23
2022/01/17 03:24:35;;;;;;;11.40;4.00;;;;;;;0.01;72.11;97999.67;105013;1270;61105;-23
2022/01/17 03:27:03;;;;;;;9.10;5.70;;;;;;;0.54;70.83;98011.05;105253;1271;75774;-23
2022/01/17 03:29:31;;;;;;;11.30;6.70;;;;;;;0.69;69.96;98000.29;105396;1271;75934;-25
2022/01/17 03:32:00;;;;;;;11.40;5.30;;;;;;;0.56;70.51;97981.92;105422;1271;74320;-24
2022/01/17 03:34:28;;;;;;;10.00;5.60;;;;;;;0.43;71.19;97993.08;105040;1270;61079;-24
2022/01/17 03:36:56;;;;;;;7.30;5.10;;;;;;;0.29;71.89;97976.09;104976;1271;62090;-24
2022/01/17 03:39:24;;;;;;;12.10;7.10;;;;;;;0.06;73.09;97975.66;105017;1271;73983;-24
2022/01/17 03:41:53;;;;;;;17.50;8.50;;;;;;;-0.08;74.15;97955.61;104963;1271;74747;-24
2022/01/17 03:44:21;;;;;;;14.90;7.00;;;;;;;0.10;74.14;97959.58;105047;1271;73377;-24
2022/01/17 03:46:49;;;;;;;18.60;7.20;;;;;;;0.47;72.86;97965.84;105339;1271;61166;-24
2022/01/17 03:49:17;;;;;;;15.10;7.90;;;;;;;0.38;73.20;97955.23;105374;1271;62036;-24
2022/01/17 03:51:46;;;;;;;16.70;9.60;;;;;;;0.21;73.91;97955.55;105404;1271;75562;-24
2022/01/17 03:54:16;;;;;;;11.30;6.80;;;;;;;0.11;74.40;97945.70;105177;1271;76143;-24
2022/01/17 03:56:44;;;;;;;13.90;8.50;;;;;;;0.00;75.05;97963.52;105370;1271;72721;-26
2022/01/17 03:59:12;;;;;;;16.90;9.50;;;;;;;-0.07;75.59;97953.33;105182;1271;61602;-24
2022/01/17 04:01:41;;;;;;;13.60;7.50;;;;;;;0.24;74.52;97957.89;104901;1271;61083;-24
2022/01/17 04:04:09;;;;;;;17.80;7.30;;;;;;;0.52;73.67;97961.48;104970;1271;75366;-24
2022/01/17 04:06:37;;;;;;;13.30;7.20;;;;;;;0.44;73.85;97947.89;104957;1271;76026;-24
2022/01/17 04:09:06;;;;;;;11.50;7.00;;;;;;;0.28;74.54;97943.16;104935;1271;74457;-24
2022/01/17 04:11:34;;;;;;;14.40;7.00;;;;;;;0.03;75.49;97937.57;104893;1271;61083;-24
2022/01/17 04:14:05;;;;;;;15.50;7.20;;;;;;;-0.08;75.84;97914.30;104886;1271;61131;-24
2022/01/17 04:16:33;;;;;;;17.40;8.10;;;;;;;0.05;75.63;97916.30;104828;1271;74608;-24
2022/01/17 04:19:02;;;;;;;14.10;7.10;;;;;;;0.44;74.60;97911.90;105053;1271;76229;-22
2022/01/17 04:21:35;;;;;;;11.30;6.40;;;;;;;0.52;74.14;97926.27;104788;1271;74136;-23
2022/01/17 04:24:03;;;;;;;12.00;7.70;;;;;;;0.41;74.39;97923.69;104942;1271;61137;-24
2022/01/17 04:26:32;;;;;;;12.60;6.60;;;;;;;0.24;75.23;97919.88;105047;1271;62216;-24
2022/01/17 04:29:00;;;;;;;16.30;6.60;;;;;;;0.05;75.79;97918.34;105232;1271;75596;-24
2022/01/17 04:31:28;;;;;;;12.90;6.80;;;;;;;-0.01;76.12;97925.23;105077;1271;74230;-24
2022/01/17 04:33:56;;;;;;;12.80;6.70;;;;;;;0.29;75.72;97920.77;105090;1271;74224;-24
2022/01/17 04:36:26;;;;;;;14.00;7.80;;;;;;;0.64;74.09;97906.45;104935;1271;61248;-25
2022/01/17 04:38:54;;;;;;;11.10;6.50;;;;;;;0.64;74.09;97906.09;105039;1271;61083;-22
2022/01/17 04:41:28;;;;;;;14.90;6.20;;;;;;;0.47;74.66;97895.81;104962;1271;74607;-22
2022/01/17 04:45:06;;;;;;;12.10;6.30;;;;;;;0.35;75.38;97911.23;104804;1272;76154;-24
2022/01/17 04:46:45;;;;;;;13.70;7.90;;;;;;;0.18;75.94;97901.91;105015;1268;74440;-24
2022/01/17 04:49:13;;;;;;;12.80;7.00;;;;;;;0.06;76.85;97894.77;105087;1268;63061;-24
2022/01/17 04:51:42;;;;;;;11.70;6.30;;;;;;;0.45;75.67;97898.85;105059;1268;61125;-24
2022/01/17 04:56:51;;;;;;;14.80;6.60;;;;;;;0.65;74.65;97890.36;105039;1271;75774;-24
2022/01/17 04:59:19;;;;;;;12.20;7.00;;;;;;;0.51;75.22;97889.98;104919;1268;74508;-25
2022/01/17 05:01:47;;;;;;;13.60;6.10;;;;;;;0.31;76.03;97884.63;105281;1268;61267;-24
2022/01/17 05:04:15;;;;;;;13.90;6.40;;;;;;;0.25;76.26;97882.06;105121;1268;61121;-24
2022/01/17 05:06:43;;;;;;;13.10;6.40;;;;;;;0.25;76.80;97879.69;105386;1268;75603;-24
2022/01/17 05:09:11;;;;;;;12.30;4.50;;;;;;;0.76;74.87;97879.09;105378;1268;75917;-24
2022/01/17 05:11:42;;;;;;;13.10;5.60;;;;;;;0.94;73.79;97878.02;105253;1268;74118;-24
2022/01/17 05:14:11;;;;;;;12.50;5.90;;;;;;;0.88;73.84;97869.83;104992;1269;61133;-24
2022/01/17 05:16:46;;;;;;;16.40;6.50;;;;;;;0.74;74.43;97871.19;105336;1268;61022;-24
2022/01/17 05:22:02;;;;;;;12.30;5.70;;;;;;;0.38;76.03;97855.38;105226;1269;74976;-22
2022/01/17 05:24:31;;;;;;;8.30;4.80;;;;;;;0.30;76.18;97861.27;105180;1268;73199;-24
2022/01/17 05:26:59;;;;;;;11.50;5.10;;;;;;;0.68;75.28;97861.15;105082;1268;61166;-24
2022/01/17 05:29:27;;;;;;;10.80;6.00;;;;;;;1.04;73.81;97853.31;105295;1268;61042;-24
2022/01/17 05:31:56;;;;;;;8.40;5.00;;;;;;;1.05;73.47;97850.88;105229;1268;74557;-24
2022/01/17 05:34:24;;;;;;;14.00;6.10;;;;;;;0.93;73.54;97848.33;105372;1268;75965;-22
2022/01/17 05:36:52;;;;;;;9.20;5.20;;;;;;;0.72;74.38;97846.20;105235;1268;74350;-22
2022/01/17 05:39:21;;;;;;;10.10;6.50;;;;;;;0.52;75.45;97837.81;105342;1268;61236;-22
2022/01/17 05:41:49;;;;;;;11.60;6.60;;;;;;;0.35;76.25;97836.27;105372;1268;62093;-22
2022/01/17 05:44:17;;;;;;;12.20;6.50;;;;;;;0.41;76.28;97836.05;105387;1268;74683;-22
2022/01/17 05:46:45;;;;;;;9.70;5.10;;;;;;;0.87;74.21;97824.25;105364;1268;76141;-22
2022/01/17 05:49:13;;;;;;;9.50;4.90;;;;;;;1.07;73.52;97822.59;105230;1268;74180;-23
2022/01/17 05:51:41;;;;;;;13.70;5.80;;;;;;;0.91;73.79;97809.14;105313;1268;61143;-24
2022/01/17 05:54:09;;;;;;;11.80;6.80;;;;;;;0.72;74.69;97810.99;105386;1268;61850;-24
2022/01/17 05:56:37;;;;;;;9.50;4.60;;;;;;;0.60;75.27;97810.55;105350;1268;74679;-24
2022/01/17 05:59:06;;;;;;;9.00;4.90;;;;;;;0.48;75.86;97807.48;105247;1268;74884;-24
2022/01/17 06:01:39;;;;;;;10.60;4.50;;;;;;;0.35;76.39;97797.48;104983;1268;74145;-24
2022/01/17 06:04:09;;;;;;;10.70;5.40;;;;;;;0.55;75.91;97789.65;104976;1268;62906;-24
2022/01/17 06:06:38;;;;;;;12.20;5.10;;;;;;;1.18;73.75;97782.89;105001;1268;61841;-24
2022/01/17 06:09:06;;;;;;;11.30;5.90;;;;;;;1.31;72.58;97773.52;105008;1268;75728;-24
2022/01/17 06:11:34;;;;;;;9.90;4.70;;;;;;;1.13;72.77;97772.73;104929;1268;75265;-24
2022/01/17 06:14:04;;;;;;;9.20;5.00;;;;;;;0.97;73.27;97764.03;105241;1268;72661;-24
2022/01/17 06:16:33;;;;;;;8.50;4.80;;;;;;;0.79;73.68;97769.73;105369;1268;61140;-24
2022/01/17 06:19:05;;;;;;;;;;;;;;;0.62;74.34;97771.11;105373;1268;61528;-24
2022/01/17 06:21:34;;;;;;;9.30;4.60;;;;;;;0.42;75.19;97766.02;105410;1268;75485;-24
2022/01/17 06:24:05;;;;;;;10.60;5.10;;;;;;;0.68;74.83;97757.40;105316;1268;74900;-24
2022/01/17 06:26:34;;;;;;;8.90;4.70;;;;;;;1.25;72.71;97754.42;104761;1271;71210;-24
2022/01/17 06:29:03;;;;;;;10.90;5.90;;;;;;;1.29;72.14;97749.40;104981;1268;61785;-24
2022/01/17 06:31:42;;;;;;;7.00;4.30;;;;;;;1.07;72.86;97760.17;104868;1268;61114;-24
2022/01/17 06:34:11;;;;;;;10.80;4.80;;;;;;;0.88;73.34;97762.20;104955;1268;75611;-24
2022/01/17 06:36:42;;;;;;;9.70;5.50;;;;;;;0.67;74.12;97762.45;104985;1268;75144;-24
2022/01/17 06:39:10;;;;;;;9.70;5.20;;;;;;;0.53;74.57;97757.65;104969;1269;74150;-24
2022/01/17 06:41:39;;;;;;;12.10;6.40;;;;;;;0.40;75.15;97739.31;104955;1268;61007;-24
2022/01/17 06:44:08;;;;;;;10.40;5.20;;;;;;;0.50;75.41;97714.82;104954;1268;61147;-24
2022/01/17 06:46:36;;;;;;;8.10;5.00;;;;;;;0.94;73.79;97706.11;104911;1271;73868;-24
2022/01/17 06:49:05;;;;;;;11.30;6.00;;;;;;;1.09;73.14;97702.41;105003;1271;75708;-24
2022/01/17 06:51:33;;;;;;;12.60;6.50;;;;;;;0.95;73.33;97686.38;104948;1271;74342;-24
2022/01/17 06:54:02;;;;;;;11.20;6.50;;;;;;;0.74;74.37;97676.46;104733;1271;61047;-25
2022/01/17 06:56:31;;;;;;;11.80;6.00;;;;;;;0.57;74.77;97671.85;104933;1271;61117;-24
2022/01/17 06:58:59;;;;;;;11.20;4.80;;;;;;;0.44;75.33;97661.36;105004;1271;75699;-24
2022/01/17 07:01:28;;;;;;;7.00;4.40;;;;;;;0.28;76.19;97646.33;104983;1271;74971;-24
2022/01/17 07:03:56;;;;;;;9.50;5.90;;;;;;;0.51;75.64;97642.34;104945;1271;73454;-24
2022/01/17 07:06:24;;;;;;;10.60;5.70;;;;;;;1.09;73.47;97658.11;105034;1271;61121;-23
2022/01/17 07:08:53;;;;;;;10.30;5.30;;;;;;;1.12;72.88;97674.86;105270;1271;61137;-23
2022/01/17 07:11:21;;;;;;;7.20;4.80;;;;;;;1.09;73.08;97709.61;105026;1271;74597;-23
2022/01/17 07:13:49;;;;;;;10.70;5.30;;;;;;;0.87;74.05;97735.92;104923;1271;75754;-23
2022/01/17 07:16:18;;;;;;;11.60;5.80;;;;;;;0.75;74.67;97732.41;104909;1271;74848;-23
2022/01/17 07:18:47;;;;;;;12.40;6.00;;;;;;;0.54;75.54;97706.88;104811;1271;61057;-23
2022/01/17 07:21:15;;;;;;;14.60;5.90;;;;;;;0.52;75.60;97707.50;104806;1271;61101;-23
2022/01/17 07:23:43;;;;;;;8.30;4.70;;;;;;;0.99;74.43;97699.80;104913;1271;75576;-22
2022/01/17 07:26:12;;;;;;;9.30;5.10;;;;;;;1.30;73.03;97680.40;105068;1271;75768;-22
2022/01/17 07:28:40;;;;;;;9.00;5.70;;;;;;;1.22;72.93;97671.02;105267;1271;74104;-22
2022/01/17 07:31:08;;;;;;;10.40;6.40;;;;;;;1.00;73.48;97649.67;105124;1271;61036;-23
2022/01/17 07:33:38;;;;;;;8.40;5.70;;;;;;;0.82;74.36;97630.67;105149;1270;61168;-23
2022/01/17 07:36:07;;;;;;;9.70;5.80;;;;;;;0.67;75.19;97610.45;104955;1271;72597;-23
2022/01/17 07:38:35;;;;;;;9.10;4.50;;;;;;;0.51;75.93;97613.31;104968;1271;74020;-22
2022/01/17 07:41:03;;;;;;;9.50;5.90;;;;;;;0.66;75.59;97595.42;104784;1271;73666;-22
2022/01/17 07:43:52;;;;;;;11.50;5.50;;;;;;;1.15;73.91;97581.71;104858;1271;61144;-22
2022/01/17 07:46:29;;;;;;;12.40;5.70;;;;;;;1.23;73.50;97597.06;104923;1269;61052;-23
2022/01/17 07:49:10;;;;;;;9.20;5.10;;;;;;;1.12;73.68;97586.14;104941;1268;75658;-22
2022/01/17 07:51:41;;;;;;;7.00;4.60;;;;;;;0.95;74.28;97602.16;104986;1268;75004;-24
2022/01/17 07:54:11;;;;;;;9.60;6.40;;;;;;;0.82;74.68;97608.98;104889;1268;74197;-24
2022/01/17 07:56:40;;;;;;;6.50;4.70;;;;;;;0.66;75.61;97588.77;105009;1269;61209;-24
2022/01/17 07:59:10;;;;;;;10.10;6.00;;;;;;;0.59;75.87;97575.02;104939;1269;62304;-24
2022/01/17 08:01:38;;;;;;;8.60;5.00;;;;;;;0.87;75.46;97575.64;105006;1268;75537;-24
2022/01/17 08:04:07;;;;;;;10.20;5.70;;;;;;;1.19;74.36;97582.79;104938;1268;74945;-23
2022/01/17 08:06:39;;;;;;;12.80;5.20;;;;;;;1.23;73.91;97569.67;105102;1268;71879;-24
2022/01/17 08:09:11;;;;;;;8.50;5.50;;;;;;;1.13;74.18;97559.10;105448;1268;61137;-25
2022/01/17 08:12:00;;;;;;;8.40;4.80;;;;;;;1.01;74.76;97562.08;105161;1269;61030;-24
2022/01/17 08:14:36;;;;;;;10.00;5.90;;;;;;;0.82;75.75;97548.98;105234;1268;75200;-24
2022/01/17 08:17:05;;;;;;;7.50;5.10;;;;;;;0.76;76.16;97546.25;105294;1271;74470;-24
2022/01/17 08:19:34;;;;;;;9.10;5.80;;;;;;;1.32;74.37;97556.48;105350;1269;74542;-24
2022/01/17 08:22:04;;;;;;;10.60;5.80;;;;;;;1.66;72.79;97517.89;105469;1268;60932;-24
2022/01/17 08:24:33;;;;;;;11.60;5.70;;;;;;;1.66;72.51;97486.11;105165;1269;61791;-24
2022/01/17 08:27:02;;;;;;;8.60;5.20;;;;;;;1.58;72.70;97501.03;105182;1268;75523;-22
2022/01/17 08:29:30;;;;;;;9.70;5.50;;;;;;;1.36;73.29;97493.11;105411;1268;76023;-23
2022/01/17 08:32:00;;;;;;;9.10;6.40;;;;;;;1.28;73.51;97454.83;105267;1269;74423;-24
2022/01/17 08:34:29;;;;;;;12.40;7.60;;;;;;;1.13;74.22;97443.38;105161;1271;61108;-24
2022/01/17 08:36:58;;;;;;;11.50;5.50;;;;;;;1.36;73.92;97432.41;105261;1268;61821;-23
2022/01/17 08:39:27;;;;;;;11.80;6.20;;;;;;;1.83;72.34;97428.80;105418;1268;74790;-23
2022/01/17 08:41:55;;;;;;;7.90;5.60;;;;;;;1.96;71.46;97436.59;105382;1271;74789;-23
2022/01/17 08:44:24;;;;;;;6.80;4.10;;;;;;;1.82;71.84;97445.92;105387;1268;73712;-23
2022/01/17 08:46:52;;;;;;;9.60;6.60;;;;;;;1.73;72.00;97435.67;105176;1271;61193;-23
2022/01/17 08:49:21;;;;;;;9.10;5.70;;;;;;;1.66;71.91;97417.48;105248;1271;61130;-23
2022/01/17 08:51:49;;;;;;;11.80;5.10;;;;;;;1.58;72.22;97413.08;105255;1271;75285;-23
2022/01/17 08:54:17;;;;;;;9.40;5.50;;;;;;;1.48;72.94;97428.52;104995;1271;76045;-23
2022/01/17 08:56:46;;;;;;;6.60;4.30;;;;;;;1.71;72.16;97403.45;104909;1271;73386;-24
2022/01/17 08:59:14;;;;;;;7.20;4.00;;;;;;;2.20;70.26;97421.30;105037;1271;62740;-23
2022/01/17 09:01:43;;;;;;;6.90;4.70;;;;;;;2.32;69.77;97416.71;105180;1271;61219;-22
2022/01/17 09:04:12;;;;;;;8.50;4.90;;;;;;;2.12;70.26;97392.96;105114;1271;75503;-23
2022/01/17 09:06:41;;;;;;;7.60;4.40;;;;;;;1.95;70.90;97389.75;104889;1271;74505;-23
2022/01/17 09:09:09;;;;;;;7.60;4.50;;;;;;;1.78;71.28;97371.61;105045;1271;72455;-22
2022/01/17 09:11:38;;;;;;;6.40;3.90;;;;;;;1.62;72.02;97377.91;105377;1270;61137;-23
2022/01/17 09:14:24;;;;;;;8.20;5.10;;;;;;;1.55;72.30;97375.11;105166;1270;61099;-23
2022/01/17 09:16:52;;;;;;;5.70;3.70;;;;;;;1.38;72.89;97361.48;104955;1271;74529;-23
2022/01/17 09:19:21;;;;;;;6.00;4.20;;;;;;;1.78;72.02;97367.33;104938;1271;75016;-22
2022/01/17 09:21:49;;;;;;;9.40;5.60;;;;;;;2.14;70.30;97363.73;105104;1271;74340;-23
2022/01/17 09:24:18;;;;;;;6.70;4.30;;;;;;;2.10;70.04;97343.10;105101;1271;61080;-22
2022/01/17 09:26:46;;;;;;;8.60;5.10;;;;;;;2.02;70.41;97336.54;105409;1271;61021;-22
2022/01/17 09:29:15;;;;;;;6.40;4.20;;;;;;;1.79;71.29;97332.53;105375;1271;75574;-22
2022/01/17 09:31:46;;;;;;;7.10;4.10;;;;;;;1.64;72.10;97325.77;105372;1271;75809;-22
2022/01/17 09:34:15;;;;;;;6.20;4.00;;;;;;;1.50;72.56;97320.97;105347;1271;74620;-23
2022/01/17 09:36:43;;;;;;;5.60;3.40;;;;;;;1.45;73.06;97325.58;105364;1269;60980;-22
2022/01/17 09:39:11;;;;;;;5.00;3.40;;;;;;;1.54;72.97;97320.82;105395;1271;61049;-22
2022/01/17 09:41:39;;;;;;;5.60;3.90;;;;;;;2.01;71.29;97310.04;105326;1271;75763;-24
2022/01/17 09:44:09;;;;;;;5.90;3.70;;;;;;;2.24;70.46;97295.34;104998;1272;75917;-22
2022/01/17 09:46:42;;;;;;;6.80;4.10;;;;;;;2.18;70.16;97288.63;104992;1271;73113;-24
2022/01/17 09:49:23;;;;;;;5.80;4.00;;;;;;;2.03;70.80;97278.23;105026;1271;61114;-24
2022/01/17 09:54:35;;;;;;;5.90;4.10;;;;;;;1.78;71.80;97254.45;104985;1271;75627;-23
2022/01/17 09:57:08;;;;;;;9.20;4.10;;;;;;;1.71;72.23;97248.80;105008;1271;75690;-24
2022/01/17 09:59:38;;;;;;;5.60;3.90;;;;;;;1.94;71.70;97250.63;104824;1271;73887;-25
2022/01/17 10:02:06;;;;;;;6.00;4.80;;;;;;;2.41;69.81;97250.04;104802;1274;62170;-24
2022/01/17 10:04:36;;;;;;;7.30;4.60;;;;;;;2.48;69.63;97241.13;105051;1271;61285;-24
2022/01/17 10:07:06;;;;;;;5.60;3.30;;;;;;;2.39;70.15;97229.70;105124;1271;75567;-23
2022/01/17 10:09:34;;;;;;;6.80;4.30;;;;;;;2.15;71.57;97225.83;105272;1271;73000;-23
2022/01/17 10:12:04;;;;;;;5.70;3.50;;;;;;;2.02;72.84;97221.37;105193;1271;73144;-23
2022/01/17 10:14:36;;;;;;;6.10;3.60;;;;;;;1.82;74.28;97207.61;105137;1271;61328;-23
2022/01/17 10:17:08;;;;;;;5.30;3.30;;;;;;;1.54;76.90;97203.17;104877;1271;61137;-23
2022/01/17 10:19:37;;;;;;;5.20;3.20;;;;;;;1.89;76.20;97181.73;104790;1271;74707;-23
2022/01/17 10:22:14;;;;;;;4.80;3.50;;;;;;;2.28;74.58;97184.64;105010;1271;74735;-22
2022/01/17 10:28:18;;;;;;;7.20;4.70;;;;;;;1.94;76.21;97171.44;105139;1271;61038;-23
2022/01/17 10:35:36;;;;;;;8.60;5.70;;;;;;;1.79;78.63;97153.38;105309;1271;73959;-23
2022/01/17 10:38:04;;;;;;;6.50;3.90;;;;;;;2.03;77.26;97146.96;105164;1274;74603;-24
2022/01/17 10:40:36;;;;;;;4.50;3.30;;;;;;;2.01;77.36;97141.70;105081;1271;61116;-24
2022/01/17 10:43:06;;;;;;;5.10;3.50;;;;;;;1.84;77.86;97140.16;104898;1271;61205;-24
2022/01/17 10:45:41;;;;;;;5.00;3.20;;;;;;;1.52;79.00;97128.75;104846;1274;73522;-24
2022/01/17 10:48:09;;;;;;;5.50;4.20;;;;;;;1.28;80.39;97130.52;104883;1271;76611;-23
2022/01/17 10:50:40;;;;;;;4.80;3.30;;;;;;;1.39;80.33;97122.83;104992;1271;74453;-23
2022/01/17 10:53:13;;;;;;;5.20;2.70;;;;;;;1.69;79.42;97109.51;104994;1271;61150;-24
2022/01/17 10:55:44;;;;;;;3.60;2.40;;;;;;;1.66;79.43;97092.77;104772;1271;61084;-24
2022/01/17 10:58:15;;;;;;;5.50;3.10;;;;;;;1.52;79.80;97089.75;104852;1271;75662;-23
2022/01/17 11:00:45;;;;;;;4.20;2.40;;;;;;;1.35;80.65;97093.03;105139;1271;73769;-24
2022/01/17 11:03:18;;;;;;;4.00;2.90;;;;;;;1.12;81.66;97083.98;105128;1272;72647;-24
2022/01/17 11:05:48;;;;;;;3.30;2.00;;;;;;;1.55;80.78;97077.19;105212;1271;61050;-23
2022/01/17 11:08:17;;;;;;;3.80;2.50;;;;;;;1.82;79.51;97072.05;105181;1271;61044;-24
2022/01/17 11:10:47;;;;;;;3.70;2.90;;;;;;;1.67;80.10;97065.16;105357;1271;75430;-24
2022/01/17 11:13:17;;;;;;;4.30;3.70;;;;;;;1.51;80.60;97057.11;105155;1271;75757;-24
2022/01/17 11:15:49;;;;;;;5.00;2.70;;;;;;;1.26;81.43;97045.48;105167;1271;74972;-24
2022/01/17 11:18:23;;;;;;;3.50;2.60;;;;;;;1.14;81.92;97035.28;105173;1271;62565;-23
2022/01/17 11:20:57;;;;;;;3.60;2.70;;;;;;;1.45;81.40;97033.82;105306;1271;61125;-23
2022/01/17 11:23:26;;;;;;;3.80;2.50;;;;;;;1.64;80.40;97035.45;105147;1274;75554;-23
2022/01/17 11:25:55;;;;;;;4.30;3.30;;;;;;;1.62;80.33;97018.20;105323;1271;75392;-23
2022/01/17 11:28:28;;;;;;;3.60;3.00;;;;;;;1.23;81.64;97006.77;105133;1274;72696;-22
2022/01/17 11:31:05;;;;;;;4.90;3.40;;;;;;;1.10;82.73;97008.39;105155;1271;61309;-22
2022/01/17 11:33:34;;;;;;;5.00;3.10;;;;;;;1.23;82.56;97008.44;105170;1271;61070;-22
2022/01/17 11:36:03;;;;;;;3.30;2.20;;;;;;;1.57;81.39;97010.35;104975;1271;74353;-22
2022/01/17 11:38:59;;;;;;;3.70;2.80;;;;;;;1.64;80.99;97001.09;104966;1271;76197;-21
2022/01/17 11:41:36;;;;;;;3.30;2.30;;;;;;;1.30;82.04;96991.34;104936;1271;74357;-22
2022/01/17 11:44:07;;;;;;;3.50;2.40;;;;;;;1.14;82.67;96993.23;104957;1271;61107;-21
2022/01/17 11:46:43;;;;;;;2.90;2.30;;;;;;;1.31;82.60;96988.73;104914;1271;61730;-22
2022/01/17 11:49:12;;;;;;;5.90;3.10;;;;;;;1.66;81.29;96985.02;104892;1271;74898;-21
2022/01/17 11:51:45;;;;;;;3.40;2.60;;;;;;;1.63;81.24;96978.58;104941;1271;75042;-21
2022/01/17 11:54:22;;;;;;;2.10;1.50;;;;;;;1.42;81.75;96964.80;104838;1271;74881;-22
2022/01/17 11:56:51;;;;;;;5.10;2.40;;;;;;;1.32;82.40;96966.94;104914;1271;61128;-21
2022/01/17 11:59:22;;;;;;;3.20;2.10;;;;;;;1.26;83.43;96956.98;105175;1271;61240;-21
2022/01/17 12:02:29;;;;;;;4.10;3.10;;;;;;;1.71;81.95;96963.44;104771;1271;474460;-21
2022/01/17 12:05:07;;;;;;;4.20;2.90;;;;;;;1.84;80.70;96947.51;105163;1271;74566;-21
2022/01/17 12:07:56;;;;;;;2.80;2.20;;;;;;;1.70;81.38;96941.91;105164;1271;74601;-21
2022/01/17 12:10:46;;;;;;;4.30;2.70;;;;;;;1.45;81.89;96918.91;105090;1274;61144;-21